Time;durP1;ratioP1;P1;durP2;ratioP2;P2;SDS_P1;SDS_P2;PMS_P1;PMS_P2;Temp;Humidity;BMP_temperature;BMP_pressure;BME280_temperature;BME280_humidity;BME280_pressure;Samples;Min_cycle;Max_cycle;Signal;HPM_P1;HPM_P2
2023/10/25 00:01:08;;;;;;;6.25;4.72;;;11.10;99.90;;;;;;5055619;28;20473;-85
2023/10/25 00:03:34;;;;;;;9.05;4.90;;;11.30;99.90;;;;;;5051566;28;20060;-84
2023/10/25 00:06:00;;;;;;;8.00;5.53;;;11.10;99.90;;;;;;5051543;28;20492;-84
2023/10/25 00:08:26;;;;;;;8.43;6.00;;;11.00;99.90;;;;;;5052426;28;20064;-84
2023/10/25 00:11:04;;;;;;;10.20;6.20;;;11.00;99.90;;;;;;5057597;28;20040;-85
2023/10/25 00:13:31;;;;;;;8.38;5.38;;;10.90;99.90;;;;;;5056452;28;20137;-84
2023/10/25 00:15:56;;;;;;;8.10;5.78;;;10.90;99.90;;;;;;5062469;28;20035;-83
2023/10/25 00:18:24;;;;;;;13.80;5.72;;;10.90;99.90;;;;;;5056691;28;20372;-84
2023/10/25 00:20:50;;;;;;;10.70;5.63;;;10.90;99.90;;;;;;5058242;28;20032;-84
2023/10/25 00:23:15;;;;;;;8.75;5.32;;;10.90;99.90;;;;;;5062056;28;20391;-84
2023/10/25 00:25:41;;;;;;;6.72;5.35;;;10.90;99.90;;;;;;5054103;28;20024;-85
2023/10/25 00:28:06;;;;;;;6.60;4.93;;;10.90;99.90;;;;;;5062670;28;20027;-85
2023/10/25 00:30:32;;;;;;;7.32;4.57;;;10.90;99.90;;;;;;5056005;28;20123;-85
2023/10/25 00:32:57;;;;;;;7.50;5.50;;;10.90;99.90;;;;;;5060952;28;20050;-85
2023/10/25 00:35:23;;;;;;;8.75;5.45;;;10.90;99.90;;;;;;5064369;28;20025;-86
2023/10/25 00:37:48;;;;;;;9.95;5.78;;;10.90;99.90;;;;;;5062724;28;20020;-84
2023/10/25 00:40:14;;;;;;;7.95;5.97;;;10.90;99.90;;;;;;5063429;28;20021;-85
2023/10/25 00:42:39;;;;;;;9.05;5.72;;;10.90;99.90;;;;;;5055179;28;20032;-85
2023/10/25 00:45:05;;;;;;;9.38;5.60;;;10.90;99.90;;;;;;5060402;28;20112;-86
2023/10/25 00:47:31;;;;;;;8.35;5.20;;;10.90;99.90;;;;;;5062881;28;20024;-85
2023/10/25 00:49:57;;;;;;;9.98;5.70;;;10.90;99.90;;;;;;5055950;28;20055;-84
2023/10/25 00:52:23;;;;;;;7.28;4.78;;;10.80;99.90;;;;;;5063449;28;20033;-85
2023/10/25 00:54:49;;;;;;;8.95;5.18;;;10.80;99.90;;;;;;5067779;28;20486;-85
2023/10/25 00:57:16;;;;;;;11.07;5.45;;;10.80;99.90;;;;;;5064322;28;20039;-85
2023/10/25 00:59:42;;;;;;;7.18;4.97;;;10.80;99.90;;;;;;5065723;28;20024;-85
2023/10/25 01:02:08;;;;;;;8.68;5.07;;;10.80;99.90;;;;;;5058045;28;20079;-84
2023/10/25 01:04:34;;;;;;;8.52;4.93;;;10.80;99.90;;;;;;5064008;28;20063;-85
2023/10/25 01:06:59;;;;;;;11.07;5.57;;;10.80;99.90;;;;;;5067655;28;20465;-85
2023/10/25 01:09:25;;;;;;;9.50;5.05;;;10.80;99.90;;;;;;5064098;28;20059;-85
2023/10/25 01:11:51;;;;;;;11.65;5.10;;;10.80;99.90;;;;;;5064540;28;20032;-85
2023/10/25 01:14:17;;;;;;;14.50;4.95;;;11.00;99.90;;;;;;5069102;28;20116;-84
2023/10/25 01:16:42;;;;;;;4.85;4.32;;;10.80;99.90;;;;;;5066527;28;20052;-84
2023/10/25 01:19:08;;;;;;;6.95;4.43;;;10.80;99.90;;;;;;5062791;28;20400;-85
2023/10/25 01:21:34;;;;;;;9.60;4.68;;;10.80;99.90;;;;;;5063381;28;20056;-85
2023/10/25 01:23:59;;;;;;;6.57;4.47;;;10.80;99.90;;;;;;5064518;28;20075;-85
2023/10/25 01:26:25;;;;;;;7.60;4.57;;;10.80;99.90;;;;;;5069289;28;20036;-85
2023/10/25 01:28:50;;;;;;;7.65;4.47;;;10.70;99.90;;;;;;5065255;28;20100;-85
2023/10/25 01:31:16;;;;;;;7.88;4.50;;;10.70;99.90;;;;;;5058741;28;20039;-84
2023/10/25 01:33:43;;;;;;;7.20;4.30;;;10.70;99.90;;;;;;5067528;28;20027;-85
2023/10/25 01:36:08;;;;;;;8.82;4.07;;;10.70;99.90;;;;;;5059807;28;20468;-85
2023/10/25 01:38:34;;;;;;;6.50;4.80;;;10.80;99.90;;;;;;5063900;28;20036;-85
2023/10/25 01:40:59;;;;;;;7.22;4.82;;;10.70;99.90;;;;;;5061688;28;20075;-85
2023/10/25 01:43:25;;;;;;;5.65;3.38;;;10.80;99.90;;;;;;5072599;28;20072;-85
2023/10/25 01:45:51;;;;;;;7.25;4.20;;;10.80;99.90;;;;;;5063479;28;20036;-85
2023/10/25 01:48:16;;;;;;;10.52;4.47;;;10.80;99.90;;;;;;5071024;28;20025;-85
2023/10/25 01:50:42;;;;;;;10.25;4.38;;;10.80;99.90;;;;;;5065788;28;20535;-85
2023/10/25 01:53:07;;;;;;;11.93;4.38;;;10.80;99.90;;;;;;5066289;28;20039;-85
2023/10/25 01:55:33;;;;;;;8.63;3.90;;;10.70;99.90;;;;;;5059901;28;20487;-85
2023/10/25 01:57:58;;;;;;;7.90;3.88;;;10.70;99.90;;;;;;5066283;28;20456;-85
2023/10/25 02:00:24;;;;;;;5.60;3.75;;;10.70;99.90;;;;;;5058064;28;20032;-85
2023/10/25 02:02:49;;;;;;;9.20;4.00;;;10.70;99.90;;;;;;5062549;28;20025;-85
2023/10/25 02:05:15;;;;;;;7.55;4.40;;;10.70;99.90;;;;;;5061948;28;20043;-85
2023/10/25 02:07:40;;;;;;;6.60;4.22;;;10.70;99.90;;;;;;5063864;28;20104;-85
2023/10/25 02:10:06;;;;;;;11.75;3.92;;;10.70;99.90;;;;;;5060528;28;20120;-85
2023/10/25 02:12:32;;;;;;;8.15;4.28;;;10.70;99.90;;;;;;5067585;28;20465;-84
2023/10/25 02:14:58;;;;;;;12.18;4.50;;;10.70;99.90;;;;;;5065294;28;20024;-84
2023/10/25 02:17:23;;;;;;;6.93;3.97;;;10.70;99.90;;;;;;5057141;28;20059;-85
2023/10/25 02:19:49;;;;;;;5.45;3.67;;;10.70;99.90;;;;;;5070396;28;20118;-84
2023/10/25 02:22:14;;;;;;;11.35;4.00;;;10.60;99.90;;;;;;5066433;28;20032;-84
2023/10/25 02:24:40;;;;;;;5.80;3.83;;;10.60;99.90;;;;;;5059455;28;20025;-85
2023/10/25 02:27:05;;;;;;;11.18;5.20;;;10.60;99.90;;;;;;5066034;28;20031;-86
2023/10/25 02:29:31;;;;;;;5.93;3.42;;;10.60;99.90;;;;;;5057765;28;20021;-86
2023/10/25 02:31:57;;;;;;;7.82;4.22;;;10.60;99.90;;;;;;5062484;28;20377;-85
2023/10/25 02:34:22;;;;;;;11.48;4.03;;;10.60;99.90;;;;;;5062362;28;20036;-86
2023/10/25 02:36:48;;;;;;;6.35;3.50;;;10.60;99.90;;;;;;5059036;28;20058;-86
2023/10/25 02:39:13;;;;;;;8.93;4.25;;;10.60;99.90;;;;;;5064626;28;20032;-86
2023/10/25 02:41:39;;;;;;;9.02;4.55;;;10.50;99.90;;;;;;5058404;28;20032;-85
2023/10/25 02:44:05;;;;;;;6.90;3.97;;;10.50;99.90;;;;;;5054343;28;20021;-85
2023/10/25 02:46:30;;;;;;;10.07;4.38;;;10.50;99.90;;;;;;5063481;28;20029;-86
2023/10/25 02:48:56;;;;;;;6.15;4.30;;;10.50;99.90;;;;;;5058653;28;20034;-86
2023/10/25 02:51:21;;;;;;;7.63;5.18;;;10.40;99.90;;;;;;5064072;28;20049;-85
2023/10/25 02:53:47;;;;;;;10.50;4.78;;;10.40;99.90;;;;;;5059841;28;20070;-86
2023/10/25 02:56:12;;;;;;;9.20;4.43;;;10.40;99.90;;;;;;5058428;28;20029;-86
2023/10/25 02:58:38;;;;;;;5.63;3.95;;;10.40;99.90;;;;;;5065300;28;20047;-86
2023/10/25 03:01:04;;;;;;;4.10;3.60;;;10.30;99.90;;;;;;5064384;28;20107;-86
2023/10/25 03:03:31;;;;;;;8.90;4.13;;;10.30;99.90;;;;;;5062346;28;20521;-86
2023/10/25 03:05:57;;;;;;;11.07;4.40;;;10.30;99.90;;;;;;5061441;28;20028;-85
2023/10/25 03:08:22;;;;;;;8.63;4.00;;;10.30;99.90;;;;;;5072767;28;20027;-86
2023/10/25 03:10:48;;;;;;;9.38;3.60;;;10.30;99.90;;;;;;5060233;28;20069;-86
2023/10/25 03:13:14;;;;;;;11.38;4.32;;;10.30;99.90;;;;;;5067486;28;20075;-85
2023/10/25 03:15:39;;;;;;;6.82;3.97;;;10.30;99.90;;;;;;5058215;28;20106;-85
2023/10/25 03:18:05;;;;;;;7.65;4.05;;;10.30;99.90;;;;;;5060751;28;20032;-85
2023/10/25 03:20:32;;;;;;;8.55;3.95;;;10.30;99.90;;;;;;5058601;28;20535;-86
2023/10/25 03:22:58;;;;;;;8.82;3.88;;;10.30;99.90;;;;;;5059973;28;20025;-85
2023/10/25 03:25:23;;;;;;;7.40;3.80;;;10.30;99.90;;;;;;5067788;28;20044;-86
2023/10/25 03:27:49;;;;;;;7.07;4.15;;;10.30;99.90;;;;;;5063407;28;20017;-86
2023/10/25 03:30:16;;;;;;;7.70;4.30;;;10.30;99.90;;;;;;5064121;28;20096;-85
2023/10/25 03:32:41;;;;;;;6.55;3.65;;;10.40;99.90;;;;;;5053106;28;20017;-86
2023/10/25 03:35:07;;;;;;;5.82;3.50;;;10.40;99.90;;;;;;5067672;28;20115;-86
2023/10/25 03:37:33;;;;;;;7.97;3.70;;;10.40;99.90;;;;;;5066981;28;20043;-86
2023/10/25 03:39:58;;;;;;;17.52;4.30;;;10.40;99.90;;;;;;5064571;28;20028;-87
2023/10/25 03:42:24;;;;;;;7.53;4.50;;;10.40;99.90;;;;;;5065541;28;20024;-86
2023/10/25 03:44:49;;;;;;;5.82;3.92;;;10.40;99.90;;;;;;5059274;28;20025;-87
2023/10/25 03:47:15;;;;;;;10.73;4.32;;;10.30;99.90;;;;;;5056728;28;20411;-86
2023/10/25 03:49:40;;;;;;;7.82;3.67;;;10.40;99.90;;;;;;5058908;28;20053;-87
2023/10/25 03:52:06;;;;;;;7.20;3.90;;;10.40;99.90;;;;;;5055432;28;20071;-87
2023/10/25 03:54:36;;;;;;;7.88;3.75;;;10.40;99.90;;;;;;5056239;28;20092;-86
2023/10/25 03:57:01;;;;;;;7.82;4.18;;;10.40;99.90;;;;;;5061017;28;20036;-86
2023/10/25 03:59:27;;;;;;;4.32;3.42;;;10.40;99.90;;;;;;5058821;28;20074;-87
2023/10/25 04:01:52;;;;;;;8.32;3.50;;;10.40;99.90;;;;;;5066090;28;20083;-87
2023/10/25 04:04:18;;;;;;;12.85;3.70;;;10.40;99.90;;;;;;5069379;28;20074;-87
2023/10/25 04:06:43;;;;;;;7.32;4.05;;;10.50;99.90;;;;;;5057341;28;20124;-87
2023/10/25 04:09:09;;;;;;;7.40;3.85;;;10.50;99.90;;;;;;5065731;28;20043;-87
2023/10/25 04:11:34;;;;;;;13.32;4.07;;;10.50;99.90;;;;;;5073150;28;20025;-86
2023/10/25 04:14:00;;;;;;;10.15;3.78;;;10.50;99.90;;;;;;5072439;28;20039;-87
2023/10/25 04:16:27;;;;;;;8.93;4.00;;;10.50;99.90;;;;;;5065798;28;20032;-86
2023/10/25 04:18:52;;;;;;;7.80;3.90;;;10.50;99.90;;;;;;5066112;28;20036;-86
2023/10/25 04:21:18;;;;;;;7.20;3.47;;;10.60;99.90;;;;;;5062465;28;20021;-86
2023/10/25 04:23:43;;;;;;;9.70;3.63;;;10.60;99.90;;;;;;5065455;28;20032;-87
2023/10/25 04:26:11;;;;;;;8.95;4.20;;;10.60;99.90;;;;;;5060541;28;20020;-87
2023/10/25 04:28:39;;;;;;;4.70;3.60;;;10.60;99.90;;;;;;5063330;28;20495;-85
2023/10/25 04:31:06;;;;;;;9.27;4.35;;;10.60;99.90;;;;;;5056527;28;20045;-82
2023/10/25 04:33:31;;;;;;;9.18;3.60;;;10.60;99.90;;;;;;5058098;28;20491;-85
2023/10/25 04:35:57;;;;;;;8.90;3.72;;;10.60;99.90;;;;;;5063651;28;20029;-84
2023/10/25 04:38:23;;;;;;;7.43;3.85;;;10.60;99.90;;;;;;5057928;28;20057;-85
2023/10/25 04:40:53;;;;;;;10.77;4.38;;;10.60;99.90;;;;;;5056563;28;20937;-85
2023/10/25 04:43:18;;;;;;;7.00;3.70;;;10.60;99.90;;;;;;5063025;28;20028;-85
2023/10/25 04:45:45;;;;;;;10.38;4.03;;;10.60;99.90;;;;;;5062249;28;20033;-86
2023/10/25 04:48:10;;;;;;;5.55;3.63;;;10.60;99.90;;;;;;5064116;28;20488;-85
2023/10/25 04:50:37;;;;;;;5.38;3.75;;;10.50;99.90;;;;;;5056196;28;20045;-85
2023/10/25 04:53:03;;;;;;;9.02;3.72;;;10.60;99.90;;;;;;5056092;28;20020;-85
2023/10/25 04:55:31;;;;;;;8.15;3.53;;;10.60;99.90;;;;;;5068834;28;20078;-85
2023/10/25 04:57:57;;;;;;;5.47;3.53;;;10.60;99.90;;;;;;5062353;28;20577;-85
2023/10/25 05:00:23;;;;;;;9.18;3.45;;;10.60;99.90;;;;;;5056821;28;20035;-85
2023/10/25 05:02:48;;;;;;;10.93;3.45;;;10.60;99.90;;;;;;5059547;28;21243;-83
2023/10/25 05:05:14;;;;;;;8.05;3.45;;;10.60;99.90;;;;;;5058763;28;20040;-84
2023/10/25 05:07:40;;;;;;;9.20;4.53;;;10.60;99.90;;;;;;5063588;28;20031;-84
2023/10/25 05:10:07;;;;;;;10.63;3.08;;;10.60;99.90;;;;;;5063034;28;20614;-84
2023/10/25 05:12:43;;;;;;;7.60;3.85;;;10.60;99.90;;;;;;5063038;28;20060;-84
2023/10/25 05:15:10;;;;;;;9.20;4.18;;;10.60;99.90;;;;;;5056672;28;20024;-85
2023/10/25 05:17:37;;;;;;;9.25;3.75;;;10.60;99.90;;;;;;5061155;28;20163;-84
2023/10/25 05:20:07;;;;;;;5.88;3.45;;;10.70;99.90;;;;;;5062757;28;20032;-84
2023/10/25 05:22:37;;;;;;;7.90;3.53;;;10.60;99.90;;;;;;5061476;28;20036;-84
2023/10/25 05:25:05;;;;;;;9.43;3.83;;;10.60;99.90;;;;;;5060269;28;20029;-84
2023/10/25 05:27:32;;;;;;;8.70;4.10;;;10.70;99.90;;;;;;5063312;28;20420;-85
2023/10/25 05:30:04;;;;;;;12.43;4.35;;;10.70;99.90;;;;;;5058984;28;20473;-84
2023/10/25 05:32:31;;;;;;;6.40;3.10;;;10.70;99.90;;;;;;5063716;28;20033;-84
2023/10/25 05:34:58;;;;;;;9.38;3.50;;;10.70;99.90;;;;;;5054456;28;20031;-84
2023/10/25 05:37:25;;;;;;;5.90;3.08;;;10.70;99.90;;;;;;5059360;28;20544;-85
2023/10/25 05:39:51;;;;;;;5.93;3.30;;;10.70;99.90;;;;;;5064262;28;20043;-83
2023/10/25 05:42:20;;;;;;;8.63;3.25;;;10.70;99.90;;;;;;5060710;28;20124;-84
2023/10/25 05:44:56;;;;;;;8.18;3.60;;;10.70;99.90;;;;;;5066385;28;20122;-85
2023/10/25 05:47:25;;;;;;;9.73;3.22;;;10.70;99.90;;;;;;5058462;28;20021;-85
2023/10/25 05:49:52;;;;;;;7.47;3.63;;;10.70;99.90;;;;;;5062560;28;20211;-85
2023/10/25 05:52:18;;;;;;;5.47;2.95;;;10.70;99.90;;;;;;5066767;28;20039;-86
2023/10/25 05:54:44;;;;;;;5.85;3.08;;;10.70;99.90;;;;;;5062866;28;20032;-85
2023/10/25 05:57:10;;;;;;;11.82;3.92;;;10.70;99.90;;;;;;5068011;28;20017;-85
2023/10/25 05:59:36;;;;;;;5.97;3.65;;;10.70;99.90;;;;;;5068199;28;20028;-85
2023/10/25 06:02:22;;;;;;;6.53;3.42;;;10.70;99.90;;;;;;5067282;28;20389;-85
2023/10/25 06:04:49;;;;;;;6.55;3.53;;;10.80;99.90;;;;;;5065250;28;20096;-85
2023/10/25 06:07:15;;;;;;;8.50;3.40;;;10.80;99.90;;;;;;5062671;28;20063;-84
2023/10/25 06:09:41;;;;;;;8.88;3.72;;;10.80;99.90;;;;;;5066924;28;20539;-84
2023/10/25 06:12:08;;;;;;;7.25;3.22;;;10.80;99.90;;;;;;5060989;28;20171;-84
2023/10/25 06:14:34;;;;;;;7.35;3.95;;;10.80;99.90;;;;;;5066444;28;20384;-85
2023/10/25 06:17:00;;;;;;;6.93;4.05;;;10.80;99.90;;;;;;5060862;28;20029;-85
2023/10/25 06:19:26;;;;;;;13.52;4.20;;;10.80;99.90;;;;;;5070340;28;20472;-85
2023/10/25 06:21:53;;;;;;;6.90;4.22;;;10.80;99.90;;;;;;5067565;28;20242;-85
2023/10/25 06:24:18;;;;;;;9.00;4.68;;;10.80;99.90;;;;;;5065348;28;20018;-85
2023/10/25 06:26:44;;;;;;;6.03;4.03;;;10.80;99.90;;;;;;5067452;28;20082;-85
2023/10/25 06:29:10;;;;;;;7.40;4.00;;;10.90;99.90;;;;;;5067469;28;20013;-85
2023/10/25 06:31:35;;;;;;;10.70;4.93;;;10.80;99.90;;;;;;5064894;28;20036;-87
2023/10/25 06:34:01;;;;;;;7.80;4.38;;;10.80;99.90;;;;;;5074879;28;20032;-85
2023/10/25 06:36:27;;;;;;;6.78;3.88;;;10.70;99.90;;;;;;5073997;28;20115;-85
2023/10/25 06:38:53;;;;;;;6.07;4.90;;;10.80;99.90;;;;;;5062065;28;20025;-85
2023/10/25 06:41:22;;;;;;;7.93;4.57;;;10.80;99.90;;;;;;5069001;28;20021;-86
2023/10/25 06:43:48;;;;;;;11.48;4.90;;;10.80;99.90;;;;;;5073212;28;20020;-85
2023/10/25 06:46:14;;;;;;;8.23;4.57;;;10.80;99.90;;;;;;5073993;28;20031;-85
2023/10/25 06:48:40;;;;;;;8.43;4.43;;;10.80;99.90;;;;;;5073389;28;20048;-85
2023/10/25 06:51:07;;;;;;;6.57;4.18;;;10.70;99.90;;;;;;5072218;28;20045;-85
2023/10/25 06:53:33;;;;;;;11.13;3.95;;;10.70;99.90;;;;;;5073530;28;20039;-85
2023/10/25 06:55:59;;;;;;;11.25;4.00;;;10.80;99.90;;;;;;5073617;28;20028;-84
2023/10/25 06:58:25;;;;;;;7.18;3.75;;;10.70;99.90;;;;;;5067577;28;20027;-85
2023/10/25 07:00:55;;;;;;;8.45;3.58;;;10.70;99.90;;;;;;5064466;28;20036;-86
2023/10/25 07:03:27;;;;;;;9.50;4.05;;;10.80;99.90;;;;;;5073323;28;20024;-85
2023/10/25 07:05:55;;;;;;;10.23;4.03;;;10.80;99.90;;;;;;5072592;28;20058;-86
2023/10/25 07:08:21;;;;;;;7.43;3.85;;;10.80;99.90;;;;;;5073730;28;20107;-86
2023/10/25 07:10:47;;;;;;;9.35;4.03;;;10.80;99.90;;;;;;5073638;28;20078;-86
2023/10/25 07:13:12;;;;;;;13.73;4.75;;;10.80;99.90;;;;;;5073023;28;20028;-86
2023/10/25 07:15:38;;;;;;;9.50;3.88;;;10.80;99.90;;;;;;5073111;28;20536;-86
2023/10/25 07:18:04;;;;;;;6.90;3.35;;;10.80;99.90;;;;;;5069486;28;20507;-85
2023/10/25 07:20:29;;;;;;;6.50;3.75;;;10.80;99.90;;;;;;5059663;28;20027;-85
2023/10/25 07:22:55;;;;;;;6.55;4.07;;;10.80;99.90;;;;;;5060236;28;20031;-84
2023/10/25 07:25:20;;;;;;;7.60;3.15;;;10.80;99.90;;;;;;5065958;28;20484;-84
2023/10/25 07:27:46;;;;;;;10.25;3.75;;;10.80;99.90;;;;;;5062737;28;20352;-83
2023/10/25 07:30:11;;;;;;;5.22;3.20;;;10.90;99.90;;;;;;5070706;28;20387;-84
2023/10/25 07:32:37;;;;;;;5.35;3.38;;;10.80;99.90;;;;;;5061709;28;20033;-83
2023/10/25 07:35:03;;;;;;;4.70;3.25;;;10.80;99.90;;;;;;5064393;28;20020;-85
2023/10/25 07:37:29;;;;;;;6.88;3.65;;;10.80;99.90;;;;;;5066634;28;20487;-84
2023/10/25 07:39:55;;;;;;;6.97;3.55;;;10.90;99.90;;;;;;5072256;28;20021;-84
2023/10/25 07:42:20;;;;;;;7.38;3.28;;;11.00;99.90;;;;;;5069607;28;20029;-86
2023/10/25 07:44:46;;;;;;;4.00;2.97;;;10.90;99.90;;;;;;5060858;28;20436;-85
2023/10/25 07:47:11;;;;;;;8.30;3.35;;;10.90;99.90;;;;;;5053190;28;20495;-85
2023/10/25 07:49:37;;;;;;;5.63;2.70;;;10.90;99.90;;;;;;5067368;28;20056;-84
2023/10/25 07:52:03;;;;;;;5.60;2.92;;;10.90;99.90;;;;;;5068671;28;20107;-85
2023/10/25 07:54:29;;;;;;;5.80;3.30;;;10.90;99.90;;;;;;5061819;28;20040;-92
2023/10/25 07:56:54;;;;;;;10.48;2.75;;;11.70;99.90;;;;;;5058290;28;20029;-85
2023/10/25 07:59:20;;;;;;;6.53;2.55;;;11.00;99.90;;;;;;5069705;28;20027;-85
2023/10/25 08:01:46;;;;;;;6.40;3.00;;;10.90;99.90;;;;;;5058806;28;20032;-85
2023/10/25 08:04:13;;;;;;;11.13;3.92;;;11.00;99.90;;;;;;5066618;28;20066;-89
2023/10/25 08:06:38;;;;;;;8.07;3.90;;;10.90;99.90;;;;;;5062843;28;20503;-86
2023/10/25 08:09:04;;;;;;;9.65;3.58;;;10.90;99.90;;;;;;5052188;28;20021;-86
2023/10/25 08:11:34;;;;;;;8.73;3.20;;;11.20;99.90;;;;;;5059436;28;20040;-85
2023/10/25 08:14:00;;;;;;;6.22;3.28;;;10.90;99.90;;;;;;5052699;28;20029;-85
2023/10/25 08:16:25;;;;;;;7.22;3.30;;;10.90;99.90;;;;;;5071305;28;20032;-89
2023/10/25 08:18:51;;;;;;;8.93;3.92;;;11.70;99.90;;;;;;5058874;28;20041;-83
2023/10/25 08:21:16;;;;;;;5.50;3.70;;;11.00;99.90;;;;;;5055753;28;20055;-84
2023/10/25 08:23:45;;;;;;;5.30;3.08;;;11.00;99.90;;;;;;5057472;28;20366;-85
2023/10/25 08:26:11;;;;;;;13.50;3.88;;;11.00;99.90;;;;;;5054987;28;20025;-84
2023/10/25 08:28:37;;;;;;;10.18;3.17;;;11.00;99.90;;;;;;5059931;28;20058;-82
2023/10/25 08:31:13;;;;;;;5.88;3.40;;;11.00;99.90;;;;;;5056990;28;20137;-84
2023/10/25 08:33:38;;;;;;;7.30;3.85;;;11.00;99.90;;;;;;5061593;28;20515;-84
2023/10/25 08:36:05;;;;;;;11.07;3.83;;;11.10;99.90;;;;;;5058948;28;20041;-86
2023/10/25 08:38:30;;;;;;;11.30;3.92;;;11.10;99.90;;;;;;5068526;28;20029;-83
2023/10/25 08:41:06;;;;;;;7.78;3.00;;;11.10;99.90;;;;;;5062319;28;20028;-85
2023/10/25 08:43:33;;;;;;;6.82;3.25;;;11.10;99.90;;;;;;5062337;28;20078;-87
2023/10/25 08:45:59;;;;;;;6.22;3.17;;;11.10;99.90;;;;;;5063636;28;20032;-90
2023/10/25 08:48:25;;;;;;;5.90;3.80;;;11.10;99.90;;;;;;5060491;28;20021;-88
2023/10/25 08:50:51;;;;;;;9.82;3.35;;;11.10;99.90;;;;;;5058475;28;20124;-87
2023/10/25 08:53:25;;;;;;;6.97;3.65;;;11.20;99.90;;;;;;5061892;28;20111;-85
2023/10/25 08:55:51;;;;;;;5.07;4.10;;;11.20;99.90;;;;;;5062140;28;20060;-84
2023/10/25 08:58:21;;;;;;;5.95;3.78;;;11.20;99.90;;;;;;5063110;28;20032;-84
2023/10/25 09:00:47;;;;;;;7.47;4.20;;;11.20;99.90;;;;;;5062230;28;20033;-84
2023/10/25 09:03:31;;;;;;;10.25;4.30;;;11.20;99.90;;;;;;5067758;28;20368;-84
2023/10/25 09:06:04;;;;;;;8.13;4.68;;;11.20;99.90;;;;;;5065311;28;20029;-83
2023/10/25 09:08:31;;;;;;;7.50;3.42;;;11.30;99.90;;;;;;5062100;28;20021;-83
2023/10/25 09:10:57;;;;;;;10.20;3.88;;;11.30;99.90;;;;;;5061572;28;20035;-84
2023/10/25 09:13:24;;;;;;;8.55;3.75;;;11.30;99.90;;;;;;5059543;28;20029;-83
2023/10/25 09:15:50;;;;;;;5.60;3.80;;;11.20;99.90;;;;;;5061448;28;20050;-89
2023/10/25 09:18:15;;;;;;;8.32;3.75;;;11.20;99.90;;;;;;5068366;28;20027;-83
2023/10/25 09:20:41;;;;;;;10.02;3.42;;;11.20;99.90;;;;;;5068020;28;20084;-82
2023/10/25 09:23:11;;;;;;;7.95;3.90;;;11.20;99.90;;;;;;5062624;28;20350;-87
2023/10/25 09:25:37;;;;;;;6.43;4.38;;;11.20;99.90;;;;;;5060809;28;20147;-82
2023/10/25 09:28:04;;;;;;;5.80;3.85;;;11.20;99.90;;;;;;5065480;28;20103;-83
2023/10/25 09:30:30;;;;;;;6.97;3.42;;;11.10;99.90;;;;;;5064232;28;20043;-83
2023/10/25 09:32:57;;;;;;;8.85;4.22;;;11.20;99.90;;;;;;5062544;28;20049;-83
2023/10/25 09:35:23;;;;;;;9.65;4.30;;;11.20;99.90;;;;;;5064967;28;20028;-83
2023/10/25 09:37:49;;;;;;;7.22;4.53;;;11.20;99.90;;;;;;5063406;28;20020;-83
2023/10/25 09:40:15;;;;;;;9.10;4.60;;;11.10;99.90;;;;;;5059948;28;20078;-83
2023/10/25 09:42:48;;;;;;;8.38;4.28;;;11.10;99.90;;;;;;5062114;28;20036;-84
2023/10/25 09:45:20;;;;;;;9.50;4.13;;;11.10;99.90;;;;;;5059592;28;20065;-85
2023/10/25 09:47:52;;;;;;;9.02;4.40;;;11.00;99.90;;;;;;5055859;28;20173;-83
2023/10/25 09:50:31;;;;;;;6.30;4.43;;;11.00;99.90;;;;;;5067734;28;20048;-84
2023/10/25 09:53:07;;;;;;;8.00;4.35;;;11.10;99.90;;;;;;5060954;28;20038;-84
2023/10/25 09:55:33;;;;;;;6.15;4.55;;;11.00;99.90;;;;;;5063329;28;20032;-85
2023/10/25 09:58:00;;;;;;;12.25;5.30;;;11.00;99.90;;;;;;5069606;28;20035;-85
2023/10/25 10:00:27;;;;;;;9.23;4.55;;;11.00;99.90;;;;;;5064735;28;20496;-83
2023/10/25 10:03:01;;;;;;;6.15;4.28;;;11.10;99.90;;;;;;5060526;28;20090;-82
2023/10/25 10:05:50;;;;;;;8.52;5.28;;;11.10;99.90;;;;;;5065730;28;20025;-85
2023/10/25 10:08:35;;;;;;;12.57;4.82;;;11.10;99.90;;;;;;5068017;28;20063;-84
2023/10/25 10:11:09;;;;;;;12.57;4.80;;;11.10;99.90;;;;;;5056596;28;20041;-83
2023/10/25 10:13:34;;;;;;;9.07;4.70;;;11.10;99.90;;;;;;5070383;28;20425;-81
2023/10/25 10:16:01;;;;;;;6.82;4.55;;;11.10;99.90;;;;;;5059343;28;20072;-85
2023/10/25 10:18:30;;;;;;;12.18;5.63;;;11.40;99.90;;;;;;5069044;28;20020;-83
2023/10/25 10:21:05;;;;;;;13.18;4.63;;;11.10;99.90;;;;;;5062746;28;21144;-83
2023/10/25 10:23:56;;;;;;;5.20;4.57;;;11.10;99.90;;;;;;5064418;28;20036;-84
2023/10/25 10:26:44;;;;;;;7.22;4.30;;;11.10;99.90;;;;;;5056509;28;20040;-87
2023/10/25 10:29:33;;;;;;;7.97;5.07;;;11.10;99.90;;;;;;5053744;28;20021;-82
2023/10/25 10:32:00;;;;;;;8.48;5.78;;;11.10;99.90;;;;;;5058245;28;20044;-82
2023/10/25 10:34:41;;;;;;;7.10;4.32;;;11.10;99.90;;;;;;5069938;28;20036;-83
2023/10/25 10:37:11;;;;;;;9.57;5.30;;;11.00;99.90;;;;;;5060585;28;20031;-82
2023/10/25 10:39:58;;;;;;;9.88;5.32;;;11.10;99.90;;;;;;5070901;28;20040;-83
2023/10/25 10:42:33;;;;;;;6.60;4.75;;;11.10;99.90;;;;;;5069607;28;20043;-83
2023/10/25 10:45:01;;;;;;;8.88;4.82;;;11.00;99.90;;;;;;5070663;28;20111;-83
2023/10/25 10:48:13;;;;;;;10.48;5.75;;;11.00;99.90;;;;;;5062800;28;20066;-83
2023/10/25 10:50:40;;;;;;;8.88;5.38;;;11.00;99.90;;;;;;5017111;28;20413;-83
2023/10/25 10:53:06;;;;;;;9.70;4.97;;;11.00;99.90;;;;;;5052700;28;20477;-83
2023/10/25 10:55:31;;;;;;;9.88;4.90;;;11.00;99.90;;;;;;5052242;28;20036;-83
2023/10/25 10:57:57;;;;;;;5.80;4.53;;;11.10;99.90;;;;;;5052208;28;20032;-82
2023/10/25 11:00:25;;;;;;;7.07;4.78;;;11.00;99.90;;;;;;5049683;28;20108;-82
2023/10/25 11:02:51;;;;;;;5.13;4.63;;;11.00;99.90;;;;;;5033655;28;20092;-82
2023/10/25 11:05:22;;;;;;;12.07;4.55;;;11.10;99.90;;;;;;5042615;28;20024;-83
2023/10/25 11:07:48;;;;;;;8.32;4.97;;;11.10;99.90;;;;;;5053358;28;20040;-82
2023/10/25 11:10:15;;;;;;;7.13;4.55;;;11.10;99.90;;;;;;5049981;28;20115;-82
2023/10/25 11:12:41;;;;;;;8.63;5.20;;;11.10;99.90;;;;;;5052123;28;20056;-82
2023/10/25 11:15:07;;;;;;;7.15;4.72;;;11.10;99.90;;;;;;5037040;28;20029;-82
2023/10/25 11:17:34;;;;;;;8.20;4.13;;;11.10;99.90;;;;;;5050394;28;20122;-82
2023/10/25 11:20:00;;;;;;;7.70;4.50;;;11.20;99.90;;;;;;5052460;28;20043;-82
2023/10/25 11:22:26;;;;;;;7.25;4.93;;;11.20;99.90;;;;;;5052934;28;20044;-82
2023/10/25 11:24:53;;;;;;;8.68;5.45;;;11.20;99.90;;;;;;5049225;28;20021;-83
2023/10/25 11:27:19;;;;;;;5.20;4.55;;;11.20;99.90;;;;;;5052865;28;20507;-82
2023/10/25 11:29:48;;;;;;;6.07;4.63;;;11.20;99.90;;;;;;5048107;28;20022;-83
2023/10/25 11:32:15;;;;;;;7.20;5.30;;;11.20;99.90;;;;;;5035788;28;20448;-82
2023/10/25 11:34:46;;;;;;;6.22;5.38;;;11.20;99.90;;;;;;5037185;28;20099;-83
2023/10/25 11:37:12;;;;;;;13.07;5.97;;;11.20;99.90;;;;;;5047310;28;20393;-84
2023/10/25 11:39:56;;;;;;;11.65;5.70;;;11.20;99.90;;;;;;5036422;28;20021;-83
2023/10/25 11:42:25;;;;;;;6.90;5.28;;;11.20;99.90;;;;;;5052833;28;20078;-83
2023/10/25 11:44:50;;;;;;;10.48;5.82;;;11.20;99.90;;;;;;5049504;28;20465;-82
2023/10/25 11:47:21;;;;;;;9.25;5.93;;;11.20;99.90;;;;;;5052491;28;20036;-82
2023/10/25 11:49:58;;;;;;;6.43;4.50;;;11.20;99.90;;;;;;5052125;28;20040;-82
2023/10/25 11:52:28;;;;;;;9.63;5.43;;;11.20;99.90;;;;;;5062816;28;20107;-82
2023/10/25 11:54:58;;;;;;;9.60;5.40;;;11.20;99.90;;;;;;5064495;28;20025;-83
2023/10/25 11:57:23;;;;;;;5.32;4.07;;;11.20;99.90;;;;;;5053031;28;20119;-82
2023/10/25 11:59:50;;;;;;;8.43;5.70;;;11.20;99.90;;;;;;5063467;28;20382;-82
2023/10/25 12:02:15;;;;;;;6.57;4.63;;;11.30;99.90;;;;;;5069714;28;20025;-82
2023/10/25 12:04:41;;;;;;;5.57;4.35;;;11.30;99.90;;;;;;5069725;28;20027;-84
2023/10/25 12:07:07;;;;;;;8.75;5.45;;;11.30;99.90;;;;;;5071995;28;20282;-82
2023/10/25 12:09:33;;;;;;;12.07;5.60;;;12.00;99.90;;;;;;5070904;28;20492;-83
2023/10/25 12:11:59;;;;;;;9.68;5.38;;;11.30;99.90;;;;;;5072282;28;20033;-82
2023/10/25 12:14:24;;;;;;;7.22;5.38;;;11.30;99.90;;;;;;5060131;28;20032;-82
2023/10/25 12:16:50;;;;;;;11.48;5.53;;;11.30;99.90;;;;;;5065720;28;20020;-82
2023/10/25 12:19:16;;;;;;;7.85;5.50;;;11.30;99.90;;;;;;5070840;28;20021;-83
2023/10/25 12:21:41;;;;;;;7.55;5.05;;;11.30;99.90;;;;;;5071049;28;20024;-82
2023/10/25 12:24:07;;;;;;;9.57;5.05;;;11.30;99.90;;;;;;5070623;28;20032;-82
2023/10/25 12:26:32;;;;;;;7.40;4.40;;;11.30;99.90;;;;;;5072004;28;20035;-83
2023/10/25 12:28:58;;;;;;;8.95;5.07;;;11.30;99.90;;;;;;5068557;28;20543;-82
2023/10/25 12:31:23;;;;;;;8.50;5.20;;;11.30;99.90;;;;;;5062393;28;20064;-82
2023/10/25 12:33:49;;;;;;;9.05;4.80;;;11.30;99.90;;;;;;5061316;28;20584;-82
2023/10/25 12:36:14;;;;;;;9.40;4.72;;;11.30;99.90;;;;;;5067139;28;20029;-83
2023/10/25 12:38:40;;;;;;;6.85;4.97;;;11.30;99.90;;;;;;5069704;28;20065;-82
2023/10/25 12:41:05;;;;;;;10.88;4.72;;;11.30;99.90;;;;;;5072071;28;20016;-81
2023/10/25 12:43:31;;;;;;;5.28;4.78;;;11.30;99.90;;;;;;5070322;28;20074;-82
2023/10/25 12:45:57;;;;;;;4.65;4.03;;;11.30;99.90;;;;;;5071672;28;20024;-81